Time;durP1;ratioP1;P1;durP2;ratioP2;P2;SDS_P1;SDS_P2;PMS_P1;PMS_P2;Temp;Humidity;BMP_temperature;BMP_pressure;BME280_temperature;BME280_humidity;BME280_pressure;Samples;Min_cycle;Max_cycle;Signal;HPM_P1;HPM_P2
2021/05/17 00:01:31;;;;;;;2.22;1.77;;;;;;;9.84;84.76;99133.47;5105664;28;20123;-64
2021/05/17 00:03:58;;;;;;;2.58;1.92;;;;;;;9.85;84.49;99123.97;5105965;28;20046;-64
2021/05/17 00:06:24;;;;;;;3.42;1.50;;;;;;;9.83;84.52;99124.00;5105881;28;20595;-64
2021/05/17 00:08:52;;;;;;;2.92;1.83;;;;;;;9.79;84.25;99117.22;5105876;28;20043;-64
2021/05/17 00:11:18;;;;;;;2.00;1.80;;;;;;;9.79;84.53;99128.41;5121504;28;20031;-63
2021/05/17 00:13:44;;;;;;;2.75;1.80;;;;;;;9.75;84.26;99120.75;5106102;28;20020;-63
2021/05/17 00:16:09;;;;;;;2.03;1.52;;;;;;;9.74;84.54;99127.72;5105860;28;20039;-63
2021/05/17 00:18:35;;;;;;;2.22;1.92;;;;;;;9.68;84.60;99120.06;5105991;28;20028;-64
2021/05/17 00:21:01;;;;;;;3.03;2.03;;;;;;;9.66;84.56;99117.50;5105794;28;20028;-64
2021/05/17 00:23:27;;;;;;;2.42;1.75;;;;;;;9.61;84.42;99116.81;5105571;28;20091;-63
2021/05/17 00:25:52;;;;;;;2.33;1.77;;;;;;;9.56;84.55;99118.66;5105699;28;20028;-63
2021/05/17 00:28:18;;;;;;;3.00;1.80;;;;;;;9.51;84.55;99110.13;5105685;28;20036;-64
2021/05/17 00:30:43;;;;;;;3.40;2.22;;;;;;;9.48;84.42;99117.97;5105450;28;20024;-64
2021/05/17 00:33:09;;;;;;;2.60;1.88;;;;;;;9.43;84.79;99115.50;5105800;28;20141;-64
2021/05/17 00:35:35;;;;;;;4.43;1.92;;;;;;;9.41;84.80;99115.53;5105354;28;20099;-63
2021/05/17 00:38:00;;;;;;;3.47;2.20;;;;;;;9.40;84.72;99119.03;5105644;28;20027;-64
2021/05/17 00:40:26;;;;;;;3.22;2.22;;;;;;;9.37;84.82;99118.25;5105308;28;20035;-63
2021/05/17 00:42:53;;;;;;;2.92;2.38;;;;;;;9.35;84.65;99110.50;5105734;28;20031;-64
2021/05/17 00:45:19;;;;;;;3.20;2.33;;;;;;;9.29;85.03;99103.75;5105449;28;20027;-64
2021/05/17 00:47:50;;;;;;;3.03;2.40;;;;;;;9.26;84.98;99105.56;5105548;28;20290;-64
2021/05/17 00:50:20;;;;;;;3.47;2.25;;;;;;;9.24;85.02;99104.75;5104651;28;20026;-64
2021/05/17 00:52:46;;;;;;;3.60;2.42;;;;;;;9.23;85.05;99105.63;5104687;28;20044;-64
2021/05/17 00:55:13;;;;;;;3.25;2.53;;;;;;;9.20;85.08;99100.53;5105064;28;20028;-64
2021/05/17 00:57:38;;;;;;;4.28;3.00;;;;;;;9.17;85.12;99104.88;5105183;28;20035;-64
2021/05/17 01:00:10;;;;;;;3.33;2.72;;;;;;;9.14;85.41;99097.19;5104684;28;20053;-64
2021/05/17 01:02:36;;;;;;;3.78;3.10;;;;;;;9.16;85.38;99097.16;5103779;28;20020;-64
2021/05/17 01:05:03;;;;;;;5.60;2.92;;;;;;;9.16;85.33;99103.19;5104981;28;20060;-64
2021/05/17 01:07:31;;;;;;;3.53;2.95;;;;;;;9.15;85.53;99104.06;5104858;28;20024;-64
2021/05/17 01:09:57;;;;;;;4.38;3.08;;;;;;;9.16;85.57;99098.00;5105062;28;20030;-64
2021/05/17 01:12:24;;;;;;;5.80;3.25;;;;;;;9.11;85.51;99081.72;5104920;28;20028;-64
2021/05/17 01:14:57;;;;;;;4.57;3.45;;;;;;;9.21;85.51;99100.50;5104834;28;20034;-64
2021/05/17 01:17:25;;;;;;;5.07;2.92;;;;;;;9.25;85.50;99099.53;5104936;28;20062;-64
2021/05/17 01:20:04;;;;;;;3.47;3.13;;;;;;;9.28;85.57;99098.63;5104824;28;20034;-64
2021/05/17 01:22:36;;;;;;;4.00;3.30;;;;;;;9.26;85.60;99101.25;5120364;28;20049;-64
2021/05/17 01:25:03;;;;;;;4.05;2.97;;;;;;;9.25;85.67;99103.88;5104765;28;20488;-64
2021/05/17 01:27:29;;;;;;;4.75;3.55;;;;;;;9.24;85.54;99096.97;5104621;28;20082;-64
2021/05/17 01:29:55;;;;;;;3.88;3.22;;;;;;;9.20;85.43;99098.78;5104518;28;20035;-65
2021/05/17 01:32:20;;;;;;;3.92;3.20;;;;;;;9.17;85.72;99098.84;5120220;28;20024;-64
2021/05/17 01:34:46;;;;;;;4.82;3.47;;;;;;;9.14;85.59;99097.19;5104442;28;20035;-64
2021/05/17 01:37:13;;;;;;;3.78;3.30;;;;;;;9.13;85.85;99094.63;5104498;28;20028;-64
2021/05/17 01:39:42;;;;;;;4.88;3.47;;;;;;;9.11;85.77;99097.25;5104560;28;20058;-64
2021/05/17 01:42:08;;;;;;;5.50;4.03;;;;;;;9.08;86.17;99097.34;5104514;28;20024;-64
2021/05/17 01:44:38;;;;;;;7.05;4.70;;;;;;;9.09;86.14;99093.84;5104181;28;20069;-64
2021/05/17 01:47:04;;;;;;;4.45;3.53;;;;;;;9.08;86.22;99086.97;5104373;28;20027;-64
2021/05/17 01:49:31;;;;;;;4.65;3.83;;;;;;;9.07;86.45;99090.47;5104182;28;20087;-64
2021/05/17 01:51:57;;;;;;;5.10;3.65;;;;;;;9.10;86.05;99089.53;5103836;28;20040;-64
2021/05/17 01:54:30;;;;;;;4.47;3.63;;;;;;;9.04;86.07;99080.19;5104320;28;20032;-64
2021/05/17 01:56:56;;;;;;;4.40;3.80;;;;;;;9.03;86.17;99086.22;5104242;28;20106;-65
2021/05/17 01:59:30;;;;;;;6.00;3.92;;;;;;;8.99;86.34;99079.44;5103913;28;20032;-64
2021/05/17 02:01:55;;;;;;;5.25;4.60;;;;;;;8.98;86.33;99086.34;5104035;28;20572;-64
2021/05/17 02:04:21;;;;;;;5.07;4.20;;;;;;;8.95;86.24;99081.25;5104227;28;20024;-64
2021/05/17 02:06:47;;;;;;;5.28;4.50;;;;;;;8.93;86.37;99083.88;5103033;28;20073;-64
2021/05/17 02:09:15;;;;;;;4.82;4.28;;;;;;;8.95;86.28;99086.41;5104016;28;20028;-63
2021/05/17 02:11:41;;;;;;;6.00;4.03;;;;;;;8.91;86.34;99084.78;5103892;28;20028;-64
2021/05/17 02:14:06;;;;;;;6.60;4.60;;;;;;;8.88;86.49;99082.28;5104019;28;20024;-63
2021/05/17 02:16:31;;;;;;;5.47;4.45;;;;;;;8.86;86.42;99082.31;5102480;28;20097;-64
2021/05/17 02:18:57;;;;;;;6.63;4.53;;;;;;;8.83;86.52;99079.78;5103925;28;20024;-64
2021/05/17 02:21:23;;;;;;;7.68;4.20;;;;;;;8.76;86.66;99078.22;5103649;28;20053;-64
2021/05/17 02:23:48;;;;;;;6.72;4.32;;;;;;;8.78;86.65;99074.72;5103973;28;20020;-64
2021/05/17 02:26:14;;;;;;;10.02;5.30;;;;;;;8.78;86.91;99076.44;5103972;28;20095;-63
2021/05/17 02:28:42;;;;;;;6.93;5.53;;;;;;;8.78;86.94;99073.88;5103826;28;20020;-64
2021/05/17 02:31:09;;;;;;;6.72;5.30;;;;;;;8.78;86.84;99072.13;5103507;28;20494;-64
2021/05/17 02:33:34;;;;;;;6.07;5.15;;;;;;;8.78;86.82;99066.97;5103630;28;20350;-64
2021/05/17 02:36:00;;;;;;;7.57;5.25;;;;;;;8.80;86.75;99062.59;5103463;28;20032;-63
2021/05/17 02:38:26;;;;;;;6.45;5.40;;;;;;;8.79;87.03;99063.47;5103755;28;20042;-63
2021/05/17 02:40:53;;;;;;;5.90;5.20;;;;;;;8.83;86.87;99061.69;5103364;28;20461;-63
2021/05/17 02:43:21;;;;;;;6.82;5.55;;;;;;;8.86;87.16;99060.75;5103832;28;20091;-63
2021/05/17 02:45:48;;;;;;;6.15;5.30;;;;;;;8.88;87.20;99057.22;5103398;28;20516;-63
2021/05/17 02:48:14;;;;;;;7.43;5.10;;;;;;;8.90;87.17;99059.78;5103437;28;20047;-63
2021/05/17 02:50:46;;;;;;;6.00;4.88;;;;;;;8.92;87.11;99051.09;5103433;28;20046;-64
2021/05/17 02:53:28;;;;;;;6.20;5.40;;;;;;;9.00;87.26;99063.00;5103720;28;20327;-63
2021/05/17 02:55:55;;;;;;;9.02;5.88;;;;;;;9.02;87.01;99059.50;5103401;28;20024;-65
2021/05/17 02:58:22;;;;;;;6.25;4.55;;;;;;;9.03;86.93;99055.16;5103469;28;20062;-64
2021/05/17 03:00:52;;;;;;;5.78;4.80;;;;;;;9.03;87.06;99058.63;5103319;28;20102;-65
2021/05/17 03:03:23;;;;;;;7.72;5.57;;;;;;;9.04;87.14;99059.47;5103438;28;20097;-63
2021/05/17 03:06:00;;;;;;;7.32;6.07;;;;;;;9.07;87.08;99061.13;5103266;28;20034;-63
2021/05/17 03:08:32;;;;;;;6.50;5.07;;;;;;;9.07;87.00;99059.41;5103727;28;20027;-64
2021/05/17 03:11:00;;;;;;;6.13;5.47;;;;;;;9.07;87.19;99055.94;5103260;28;20023;-63
2021/05/17 03:13:27;;;;;;;6.00;4.82;;;;;;;9.10;86.89;99056.75;5118770;28;20527;-65
2021/05/17 03:15:53;;;;;;;8.65;6.35;;;;;;;9.10;86.84;99050.69;5106806;28;20070;-63
2021/05/17 03:18:18;;;;;;;7.03;5.40;;;;;;;9.12;87.02;99048.94;5107062;28;20103;-66
2021/05/17 03:20:43;;;;;;;7.25;6.07;;;;;;;9.12;87.18;99048.94;5107078;28;20032;-63
2021/05/17 03:23:12;;;;;;;7.93;5.63;;;;;;;9.14;86.93;99050.59;5107100;28;20024;-63
2021/05/17 03:25:41;;;;;;;6.75;5.53;;;;;;;9.16;87.17;99054.00;5106967;28;20054;-63
2021/05/17 03:28:06;;;;;;;6.75;5.55;;;;;;;9.17;86.92;99053.09;5107052;28;20081;-63
2021/05/17 03:30:32;;;;;;;8.55;6.18;;;;;;;9.20;87.00;99054.75;5106670;28;20020;-64
2021/05/17 03:32:57;;;;;;;10.27;6.18;;;;;;;9.18;87.16;99047.03;5105530;28;20033;-64
2021/05/17 03:35:23;;;;;;;10.32;6.80;;;;;;;9.27;87.20;99055.47;5106868;28;20028;-63
2021/05/17 03:37:49;;;;;;;7.75;5.90;;;;;;;9.29;87.17;99053.69;5107121;28;20020;-63
2021/05/17 03:40:15;;;;;;;10.05;7.20;;;;;;;9.35;86.83;99050.94;5106590;28;20024;-63
2021/05/17 03:42:41;;;;;;;9.15;7.20;;;;;;;9.35;87.02;99050.94;5106985;28;20031;-64
2021/05/17 03:45:10;;;;;;;8.05;6.28;;;;;;;9.39;87.07;99044.78;5106870;28;20035;-63
2021/05/17 03:47:35;;;;;;;9.43;7.53;;;;;;;9.44;87.01;99049.00;5106890;28;20081;-64
2021/05/17 03:50:01;;;;;;;8.82;7.18;;;;;;;9.46;86.74;99045.47;5106693;28;20024;-64
2021/05/17 03:52:26;;;;;;;9.95;7.70;;;;;;;9.42;86.79;99039.53;5106317;28;20056;-64
2021/05/17 03:54:52;;;;;;;7.65;6.70;;;;;;;9.44;86.87;99047.25;5106563;28;20112;-64
2021/05/17 03:57:17;;;;;;;10.35;8.23;;;;;;;9.46;86.44;99044.63;5106580;28;20027;-64
2021/05/17 03:59:45;;;;;;;10.50;7.47;;;;;;;9.40;86.70;99045.66;5106156;28;20032;-65
2021/05/17 04:02:17;;;;;;;12.35;8.52;;;;;;;9.40;86.65;99035.28;5106411;28;20019;-64
2021/05/17 04:04:56;;;;;;;9.88;8.00;;;;;;;9.41;86.58;99040.41;5106387;28;20024;-65
2021/05/17 04:15:21;;;;;;;12.60;10.23;;;;;;;9.48;86.76;99037.66;5106036;28;20020;-64
2021/05/17 04:17:46;;;;;;;12.27;9.15;;;;;;;9.52;86.90;99045.31;5106106;28;20439;-64
2021/05/17 04:20:13;;;;;;;13.25;10.05;;;;;;;9.54;86.96;99038.38;5105730;28;20072;-64
2021/05/17 04:22:39;;;;;;;10.85;9.10;;;;;;;9.53;86.79;99031.50;5105734;28;20141;-64
2021/05/17 04:25:04;;;;;;;11.38;9.23;;;;;;;9.57;86.47;99046.97;5105256;28;20032;-64
2021/05/17 04:27:30;;;;;;;13.68;9.30;;;;;;;9.60;86.37;99042.53;5105325;28;20020;-64
2021/05/17 04:29:55;;;;;;;11.68;9.63;;;;;;;9.61;86.58;99048.56;5105402;28;20444;-65
2021/05/17 04:32:20;;;;;;;11.68;9.13;;;;;;;9.62;86.53;99050.25;5120985;28;20020;-64
2021/05/17 04:34:46;;;;;;;11.23;9.13;;;;;;;9.61;86.58;99044.25;5105227;28;20016;-62
2021/05/17 04:37:11;;;;;;;11.80;9.30;;;;;;;9.66;86.38;99042.34;5105527;28;20051;-63
2021/05/17 04:39:37;;;;;;;11.00;9.10;;;;;;;9.67;86.37;99046.66;5105224;28;20088;-62
2021/05/17 04:42:02;;;;;;;11.95;9.43;;;;;;;9.69;86.15;99048.34;5105391;28;20032;-62
2021/05/17 04:44:27;;;;;;;11.60;9.50;;;;;;;9.69;86.20;99048.34;5105275;28;20099;-62
2021/05/17 04:46:53;;;;;;;12.50;9.57;;;;;;;9.71;86.63;99041.41;5105514;28;20024;-62
2021/05/17 04:49:18;;;;;;;11.32;9.80;;;;;;;9.78;86.88;99043.78;5105384;28;20392;-62
2021/05/17 04:51:44;;;;;;;11.10;9.82;;;;;;;9.84;86.59;99050.53;5105159;28;20048;-62
2021/05/17 04:54:09;;;;;;;10.70;9.43;;;;;;;9.86;86.26;99051.34;5105113;28;20016;-62
2021/05/17 04:56:35;;;;;;;11.32;9.68;;;;;;;9.86;86.19;99059.13;5121078;28;20054;-62
2021/05/17 04:59:00;;;;;;;10.93;9.65;;;;;;;9.85;85.97;99057.44;5105458;28;20020;-62
2021/05/17 05:01:25;;;;;;;13.70;10.25;;;;;;;9.84;86.38;99047.94;5104841;28;20177;-62
2021/05/17 05:03:51;;;;;;;12.07;10.32;;;;;;;9.91;86.55;99057.25;5105208;28;20024;-62
2021/05/17 05:06:16;;;;;;;14.05;10.35;;;;;;;9.96;86.43;99045.91;5105115;28;20031;-63
2021/05/17 05:08:41;;;;;;;11.52;9.55;;;;;;;10.01;86.04;99054.41;5105135;28;20052;-62
2021/05/17 05:11:07;;;;;;;12.85;10.48;;;;;;;10.02;86.30;99058.69;5105141;28;20023;-62
2021/05/17 05:13:32;;;;;;;12.35;10.23;;;;;;;10.03;86.14;99055.22;5104904;28;20073;-62
2021/05/17 05:15:57;;;;;;;13.20;9.68;;;;;;;10.02;86.11;99048.31;5104874;28;20044;-62
2021/05/17 05:18:23;;;;;;;14.73;10.98;;;;;;;10.01;86.10;99041.44;5105132;28;20094;-62
2021/05/17 05:20:49;;;;;;;16.20;11.85;;;;;;;10.06;85.96;99049.97;5105008;28;20016;-62
2021/05/17 05:23:15;;;;;;;14.93;12.05;;;;;;;10.08;85.87;99047.31;5104771;28;20043;-62
2021/05/17 05:28:28;;;;;;;17.55;12.27;;;;;;;10.08;85.84;99060.28;5104862;28;20028;-61
2021/05/17 05:33:19;;;;;;;15.18;11.68;;;;;;;10.13;85.80;99051.47;5104430;28;20028;-63
2021/05/17 05:35:48;;;;;;;18.83;11.55;;;;;;;10.20;86.06;99056.47;5104414;28;20035;-63
2021/05/17 05:38:13;;;;;;;14.55;12.07;;;;;;;10.32;86.68;99056.13;5104257;28;20032;-63
2021/05/17 05:40:39;;;;;;;15.85;12.48;;;;;;;10.56;86.90;99053.72;5104322;28;20372;-63
2021/05/17 05:43:05;;;;;;;15.80;12.68;;;;;;;10.71;86.48;99062.81;5104504;28;20043;-63
2021/05/17 05:45:34;;;;;;;14.48;12.57;;;;;;;10.80;86.34;99053.88;5104120;28;20047;-62
2021/05/17 05:48:00;;;;;;;15.70;13.05;;;;;;;10.89;86.01;99056.16;5104591;28;20043;-62
2021/05/17 05:50:25;;;;;;;16.33;12.68;;;;;;;10.97;85.97;99053.34;5104531;28;20107;-62
2021/05/17 05:52:51;;;;;;;17.27;12.57;;;;;;;11.01;85.57;99054.09;5104248;28;20044;-63
2021/05/17 05:55:17;;;;;;;20.17;13.15;;;;;;;10.99;84.45;99064.53;5103059;28;20073;-63
2021/05/17 05:57:44;;;;;;;15.93;13.13;;;;;;;10.92;84.92;99063.03;5104647;28;20039;-63
2021/05/17 06:00:12;;;;;;;18.55;13.07;;;;;;;10.94;84.93;99060.38;5104020;28;20024;-63
2021/05/17 06:02:39;;;;;;;18.83;13.18;;;;;;;10.89;84.82;99056.16;5104157;28;20573;-63
2021/05/17 06:05:06;;;;;;;19.20;14.57;;;;;;;10.90;84.88;99063.09;5104188;28;20028;-63
2021/05/17 06:07:31;;;;;;;21.88;14.48;;;;;;;10.94;85.43;99057.78;5104222;28;20028;-63
2021/05/17 06:09:57;;;;;;;24.35;13.73;;;;;;;11.08;85.87;99059.94;5103939;28;20020;-64
2021/05/17 06:12:23;;;;;;;20.95;13.02;;;;;;;11.26;85.92;99058.50;5103839;28;20042;-62
2021/05/17 06:14:53;;;;;;;16.35;13.15;;;;;;;11.40;85.99;99053.69;5103632;28;20022;-62
2021/05/17 06:17:19;;;;;;;19.48;13.18;;;;;;;11.52;85.76;99055.00;5104001;28;20020;-62
2021/05/17 06:19:44;;;;;;;14.93;11.82;;;;;;;11.61;85.80;99061.63;5103695;28;20467;-62
2021/05/17 06:22:10;;;;;;;14.57;11.63;;;;;;;11.76;85.84;99060.28;5103664;28;20048;-62
2021/05/17 06:24:36;;;;;;;17.83;12.65;;;;;;;11.94;85.67;99057.91;5103958;28;20157;-63
2021/05/17 06:27:01;;;;;;;15.73;12.00;;;;;;;12.06;85.82;99064.41;5103853;28;20020;-63
2021/05/17 06:29:27;;;;;;;18.70;13.20;;;;;;;12.22;85.19;99069.13;5103900;28;20020;-63
2021/05/17 06:31:54;;;;;;;18.70;13.73;;;;;;;12.20;84.51;99063.97;5103394;28;20084;-63
2021/05/17 06:34:20;;;;;;;23.27;13.07;;;;;;;12.20;84.91;99065.72;5103516;28;20036;-63
2021/05/17 06:36:45;;;;;;;17.20;13.02;;;;;;;12.22;84.50;99071.72;5103815;28;20020;-63
2021/05/17 06:39:12;;;;;;;19.52;14.05;;;;;;;12.28;84.51;99076.69;5103600;28;20391;-63
2021/05/17 06:41:38;;;;;;;18.88;13.57;;;;;;;12.27;84.67;99073.22;5103646;28;20019;-63
2021/05/17 06:44:05;;;;;;;20.17;14.07;;;;;;;12.34;84.52;99079.06;5103624;28;20027;-63
2021/05/17 06:46:31;;;;;;;20.67;14.57;;;;;;;12.33;84.22;99076.53;5103079;28;20073;-63
2021/05/17 06:48:57;;;;;;;19.02;14.15;;;;;;;12.26;84.35;99074.16;5104174;28;20024;-63
2021/05/17 06:51:23;;;;;;;19.30;15.13;;;;;;;12.37;84.41;99081.56;5107510;28;20063;-63
2021/05/17 06:53:54;;;;;;;26.17;15.63;;;;;;;12.41;83.67;99090.09;5107726;28;20045;-63
2021/05/17 06:56:24;;;;;;;20.13;15.50;;;;;;;12.33;83.61;99082.56;5107640;28;20328;-62
2021/05/17 07:01:22;;;;;;;25.83;17.13;;;;;;;12.18;83.19;99080.53;5107287;28;20036;-63
2021/05/17 07:03:49;;;;;;;20.42;15.23;;;;;;;12.20;83.43;99078.72;5107544;28;20676;-63
2021/05/17 07:06:20;;;;;;;21.75;14.93;;;;;;;12.15;83.82;99078.88;5106154;28;20035;-62
2021/05/17 07:13:59;;;;;;;21.73;15.20;;;;;;;12.48;83.70;99080.28;5107410;28;20028;-61
2021/05/17 07:16:24;;;;;;;17.67;14.55;;;;;;;12.61;83.69;99080.66;5107006;28;20024;-63
2021/05/17 07:18:50;;;;;;;21.00;14.30;;;;;;;12.70;83.55;99079.50;5107282;28;20024;-63
2021/05/17 07:23:41;;;;;;;19.33;14.18;;;;;;;12.80;82.92;99075.59;5107349;28;20035;-61
2021/05/17 07:26:12;;;;;;;19.60;13.80;;;;;;;12.77;82.92;99076.59;5107032;28;20028;-63
2021/05/17 07:28:39;;;;;;;19.58;14.88;;;;;;;12.78;81.72;99077.41;5107450;28;20092;-63
2021/05/17 07:31:06;;;;;;;20.10;14.20;;;;;;;12.64;82.03;99080.56;5106677;28;20561;-63
2021/05/17 07:33:32;;;;;;;20.42;14.68;;;;;;;12.61;81.69;99078.94;5107042;28;20027;-64
2021/05/17 07:35:58;;;;;;;17.13;13.13;;;;;;;12.44;80.89;99076.97;5106783;28;20061;-62
2021/05/17 07:38:28;;;;;;;18.88;13.65;;;;;;;12.36;81.01;99077.22;5106905;28;20035;-62
2021/05/17 07:40:54;;;;;;;25.63;16.00;;;;;;;12.23;81.16;99076.88;5106624;28;20484;-63
2021/05/17 07:43:20;;;;;;;21.35;15.60;;;;;;;12.12;80.75;99081.59;5106899;28;20046;-63
2021/05/17 07:45:46;;;;;;;21.20;15.73;;;;;;;11.96;81.29;99079.53;5106368;28;20020;-63
2021/05/17 07:48:12;;;;;;;21.83;16.63;;;;;;;11.94;81.84;99078.72;5106584;28;20464;-63
2021/05/17 07:50:38;;;;;;;21.98;16.20;;;;;;;11.92;82.07;99084.91;5106536;28;20028;-62
2021/05/17 07:53:03;;;;;;;27.15;17.30;;;;;;;11.81;80.85;99091.31;5106114;28;20123;-61
2021/05/17 07:55:29;;;;;;;30.35;20.33;;;;;;;11.61;81.41;99077.22;5106380;28;20020;-60
2021/05/17 07:57:54;;;;;;;28.80;18.23;;;;;;;11.43;82.01;99083.91;5106357;28;20027;-64
2021/05/17 08:00:19;;;;;;;68.63;26.52;;;;;;;11.23;82.75;99080.22;5105888;28;20087;-68
2021/05/17 08:02:45;;;;;;;49.58;26.08;;;;;;;11.19;83.80;99069.97;5106367;28;20024;-68
2021/05/17 08:05:10;;;;;;;109.88;37.22;;;;;;;11.28;84.47;99080.06;5106211;28;20024;-68
2021/05/17 08:07:36;;;;;;;83.47;32.00;;;;;;;11.34;85.00;99077.25;5106406;28;20109;-67
2021/05/17 08:10:05;;;;;;;43.92;26.23;;;;;;;11.37;85.31;99081.53;5106359;28;20373;-67
2021/05/17 08:12:31;;;;;;;44.45;26.90;;;;;;;11.32;85.67;99066.09;5106336;28;20024;-68
2021/05/17 08:14:57;;;;;;;53.63;27.85;;;;;;;11.36;85.72;99070.28;5106253;28;20077;-68
2021/05/17 08:17:23;;;;;;;60.60;29.23;;;;;;;11.34;84.89;99079.84;5106371;28;20099;-68
2021/05/17 08:19:48;;;;;;;57.08;31.25;;;;;;;11.11;85.21;99075.44;5106083;28;20024;-69
2021/05/17 08:22:14;;;;;;;70.10;34.25;;;;;;;11.01;85.92;99077.47;5106110;28;20027;-68
2021/05/17 08:24:40;;;;;;;64.80;33.00;;;;;;;10.93;86.19;99074.28;5106459;28;20013;-68
2021/05/17 08:27:05;;;;;;;48.50;26.45;;;;;;;10.89;86.76;99083.91;5106107;28;20031;-68
2021/05/17 08:29:36;;;;;;;51.08;26.77;;;;;;;10.93;86.95;99080.28;5106228;28;20013;-68
2021/05/17 08:32:02;;;;;;;45.92;26.17;;;;;;;11.00;87.23;99086.16;5105792;28;20016;-68
2021/05/17 08:34:28;;;;;;;56.88;32.72;;;;;;;11.06;87.74;99083.38;5105881;28;20027;-68
2021/05/17 08:36:58;;;;;;;36.55;25.02;;;;;;;11.14;87.43;99083.13;5105865;28;20023;-67
2021/05/17 08:39:24;;;;;;;56.53;29.50;;;;;;;11.14;87.50;99080.50;5106226;28;20057;-67
2021/05/17 08:41:49;;;;;;;46.08;27.70;;;;;;;11.12;87.81;99090.97;5105740;28;20024;-67
2021/05/17 08:44:15;;;;;;;37.60;23.60;;;;;;;11.19;87.97;99089.03;5105765;28;20452;-66
2021/05/17 08:46:46;;;;;;;33.90;22.17;;;;;;;11.33;88.16;99085.97;5105393;28;20080;-66
2021/05/17 08:49:12;;;;;;;28.90;20.53;;;;;;;11.44;87.75;99088.19;5105227;28;20024;-65
2021/05/17 08:51:37;;;;;;;29.30;19.92;;;;;;;11.49;87.23;99090.66;5105136;28;20390;-65
2021/05/17 08:54:06;;;;;;;28.45;19.77;;;;;;;11.50;87.79;99085.41;5105531;28;20051;-67
2021/05/17 08:56:33;;;;;;;35.78;22.27;;;;;;;11.56;87.78;99086.97;5105314;28;20035;-67
2021/05/17 08:59:00;;;;;;;36.58;23.73;;;;;;;11.64;87.89;99084.94;5105180;28;20024;-67
2021/05/17 09:01:26;;;;;;;32.72;22.08;;;;;;;11.78;87.41;99094.00;5103489;28;20092;-67
2021/05/17 09:03:56;;;;;;;27.77;19.55;;;;;;;11.79;86.34;99095.69;5105429;28;20447;-67
2021/05/17 09:06:23;;;;;;;35.70;22.67;;;;;;;11.65;86.14;99089.25;5103628;28;20020;-66
2021/05/17 09:08:49;;;;;;;37.80;22.42;;;;;;;11.60;86.23;99090.28;5105021;28;20020;-66
2021/05/17 09:11:29;;;;;;;32.22;21.23;;;;;;;11.50;85.75;99088.00;5104454;28;20088;-66
2021/05/17 09:14:24;;;;;;;32.03;19.52;;;;;;;11.42;85.82;99078.78;5104556;28;20028;-66
2021/05/17 09:17:01;;;;;;;33.00;20.75;;;;;;;11.34;85.64;99086.81;5099881;28;20039;-66
2021/05/17 09:19:28;;;;;;;29.60;19.70;;;;;;;11.38;86.24;99080.63;5104538;28;20043;-66
2021/05/17 09:21:57;;;;;;;27.65;17.92;;;;;;;11.42;85.82;99076.16;5104407;28;20028;-64
2021/05/17 09:24:38;;;;;;;27.75;19.50;;;;;;;11.60;86.66;99083.34;5104498;28;20031;-64
2021/05/17 09:27:04;;;;;;;23.95;17.45;;;;;;;11.93;87.06;99086.59;5104289;28;20055;-63
2021/05/17 09:29:35;;;;;;;20.77;15.63;;;;;;;12.03;85.87;99094.00;5104405;28;20020;-64
2021/05/17 09:32:13;;;;;;;23.97;16.20;;;;;;;11.99;85.64;99092.44;5104093;28;20111;-65
2021/05/17 09:34:38;;;;;;;18.05;12.65;;;;;;;11.96;84.91;99081.28;5103004;28;20280;-62
2021/05/17 09:37:08;;;;;;;16.77;11.90;;;;;;;11.93;84.24;99087.44;5104423;28;20019;-61
2021/05/17 09:39:36;;;;;;;19.63;13.90;;;;;;;11.98;84.42;99090.69;5104328;28;20036;-61
2021/05/17 09:42:03;;;;;;;16.73;12.95;;;;;;;12.19;84.39;99087.44;5104210;28;20032;-62
2021/05/17 09:44:30;;;;;;;19.42;14.55;;;;;;;12.34;83.79;99092.06;5104191;28;20076;-63
2021/05/17 09:47:16;;;;;;;21.15;14.00;;;;;;;12.42;83.41;99091.78;5103821;28;20016;-62
2021/05/17 09:49:51;;;;;;;20.58;13.27;;;;;;;12.33;81.96;99092.97;5104144;28;20031;-63
2021/05/17 09:52:30;;;;;;;24.35;14.48;;;;;;;12.22;82.89;99098.56;5104073;28;20211;-62
2021/05/17 09:55:08;;;;;;;21.80;14.73;;;;;;;12.09;83.13;99103.34;5104213;28;20092;-62
2021/05/17 09:57:41;;;;;;;23.92;16.35;;;;;;;11.88;82.38;99095.41;5104203;28;20031;-62
2021/05/17 10:00:21;;;;;;;23.35;16.77;;;;;;;11.92;82.58;99101.31;5103714;28;20024;-62
2021/05/17 10:02:51;;;;;;;22.75;15.95;;;;;;;12.02;83.25;99110.53;5103982;28;20106;-63
2021/05/17 10:05:21;;;;;;;23.27;16.42;;;;;;;12.17;82.75;99097.91;5104066;28;20028;-63
2021/05/17 10:07:51;;;;;;;23.20;16.52;;;;;;;12.28;83.19;99105.31;5104138;28;20015;-63
2021/05/17 10:10:17;;;;;;;24.25;17.73;;;;;;;12.33;83.63;99100.75;5102657;28;20020;-63
2021/05/17 10:12:43;;;;;;;25.45;18.58;;;;;;;12.29;82.64;99099.19;5103795;28;20464;-63
2021/05/17 10:15:13;;;;;;;21.92;17.05;;;;;;;12.23;82.71;99102.03;5103588;28;20046;-62
2021/05/17 10:17:38;;;;;;;22.35;16.10;;;;;;;12.37;83.94;99107.56;5103853;28;20043;-63
2021/05/17 10:20:09;;;;;;;21.02;15.57;;;;;;;12.50;83.54;99099.31;5103835;28;20054;-63
2021/05/17 10:22:35;;;;;;;19.73;14.38;;;;;;;12.52;83.38;99110.53;5103871;28;20024;-64
2021/05/17 10:25:05;;;;;;;21.20;14.90;;;;;;;12.51;83.17;99116.59;5102872;28;20020;-63
2021/05/17 10:27:32;;;;;;;22.52;15.57;;;;;;;12.39;82.80;99121.38;5104116;28;20031;-63
2021/05/17 10:30:01;;;;;;;24.20;17.60;;;;;;;12.23;82.71;99115.91;5103508;28;20032;-63
2021/05/17 10:33:06;;;;;;;25.45;18.05;;;;;;;12.08;83.17;99122.47;5103639;28;20027;-63
2021/05/17 10:35:39;;;;;;;28.30;18.15;;;;;;;11.96;83.52;99125.47;5080576;28;20028;-63
2021/05/17 10:38:28;;;;;;;25.38;16.75;;;;;;;11.99;84.13;99130.56;5080739;28;20493;-64
2021/05/17 10:44:38;;;;;;;25.90;16.27;;;;;;;11.94;82.86;99122.06;5080908;28;20025;-65
2021/05/17 10:47:03;;;;;;;25.88;15.75;;;;;;;11.78;82.57;99117.41;5080412;28;20037;-65
2021/05/17 10:49:33;;;;;;;23.70;17.60;;;;;;;11.69;82.93;99123.78;5080562;28;20119;-64
2021/05/17 10:52:05;;;;;;;24.40;17.10;;;;;;;11.61;82.90;99124.03;5080561;28;20047;-64
2021/05/17 10:54:32;;;;;;;22.73;16.70;;;;;;;11.69;83.27;99125.53;5080655;28;20574;-64
2021/05/17 10:57:04;;;;;;;25.92;15.80;;;;;;;11.72;83.87;99126.28;5080539;28;20032;-64
2021/05/17 11:02:30;;;;;;;34.15;19.33;;;;;;;11.59;84.29;99127.59;5080477;28;20102;-62
2021/05/17 11:05:18;;;;;;;29.52;19.15;;;;;;;11.70;84.73;99129.81;5080524;28;20036;-62
2021/05/17 11:07:54;;;;;;;30.35;18.90;;;;;;;11.84;84.28;99127.59;5103484;28;20096;-63
2021/05/17 11:10:25;;;;;;;27.88;16.95;;;;;;;11.77;83.44;99133.94;5103517;28;20029;-62
2021/05/17 11:13:03;;;;;;;25.77;17.63;;;;;;;11.84;83.47;99137.16;5103165;28;20028;-62
2021/05/17 11:15:39;;;;;;;24.25;16.75;;;;;;;12.06;83.52;99136.41;5103189;28;20056;-62
2021/05/17 11:18:04;;;;;;;23.30;17.13;;;;;;;12.33;83.80;99133.78;5103460;28;20028;-62
2021/05/17 11:20:39;;;;;;;22.52;15.52;;;;;;;12.45;82.13;99137.66;5103156;28;20108;-62
2021/05/17 11:23:17;;;;;;;20.73;14.23;;;;;;;12.50;80.85;99138.34;5103579;28;20108;-64
2021/05/17 11:28:36;;;;;;;21.15;14.77;;;;;;;12.41;81.29;99141.28;5103531;28;20024;-62
2021/05/17 11:31:35;;;;;;;23.17;16.42;;;;;;;12.34;81.42;99149.34;5103048;28;20020;-63
2021/05/17 11:34:03;;;;;;;19.10;13.93;;;;;;;12.51;81.91;99140.91;5103176;28;20050;-62
2021/05/17 11:36:33;;;;;;;18.80;13.75;;;;;;;12.58;79.53;99143.28;5106108;28;20506;-62
2021/05/17 11:39:17;;;;;;;20.83;14.45;;;;;;;12.59;80.92;99140.59;5107194;28;20051;-63
2021/05/17 11:42:07;;;;;;;19.90;14.32;;;;;;;12.62;81.38;99144.88;5106861;28;20047;-62
2021/05/17 11:44:37;;;;;;;20.92;14.48;;;;;;;12.74;81.46;99156.56;5106901;28;20023;-62
2021/05/17 11:47:02;;;;;;;20.17;12.38;;;;;;;12.82;81.18;99154.53;5106590;28;20043;-62
2021/05/17 11:49:28;;;;;;;20.98;12.27;;;;;;;12.84;80.10;99157.91;5106726;28;20062;-62
2021/05/17 11:51:56;;;;;;;19.33;11.98;;;;;;;12.86;78.54;99163.91;5106605;28;20047;-63
2021/05/17 11:54:24;;;;;;;16.50;11.60;;;;;;;12.80;78.17;99164.16;5106684;28;20032;-62
2021/05/17 11:56:53;;;;;;;17.27;11.98;;;;;;;12.68;78.06;99167.22;5106748;28;20027;-63
2021/05/17 11:59:23;;;;;;;15.93;11.32;;;;;;;12.61;78.46;99162.25;5106597;28;20030;-62
2021/05/17 12:01:51;;;;;;;13.57;10.60;;;;;;;12.62;78.18;99168.31;5106388;28;20019;-62
2021/05/17 12:04:22;;;;;;;13.88;9.45;;;;;;;12.81;77.48;99165.84;5106536;28;20020;-63